createdAt,value
2023-03-22T00:04:44.402Z,7.60
2023-03-22T00:09:46.876Z,7.59
2023-03-22T00:14:55.175Z,7.55
2023-03-22T00:19:57.235Z,7.54
2023-03-22T00:24:59.230Z,7.43
2023-03-22T00:30:00.940Z,7.32
2023-03-22T00:35:03.964Z,7.20
2023-03-22T00:40:11.607Z,7.10
2023-03-22T00:45:14.558Z,7.02
2023-03-22T00:50:22.383Z,6.95
2023-03-22T00:55:25.632Z,6.91
2023-03-22T01:00:27.718Z,6.90
2023-03-22T01:05:34.981Z,6.79
2023-03-22T01:10:38.958Z,6.65
2023-03-22T01:15:41.403Z,6.54
2023-03-22T01:20:43.229Z,6.46
2023-03-22T01:25:45.341Z,6.37
2023-03-22T01:30:47.120Z,6.33
2023-03-22T01:35:48.883Z,6.22
2023-03-22T01:40:51.091Z,6.12
2023-03-22T01:45:54.446Z,6.04
2023-03-22T01:51:12.068Z,5.96
2023-03-22T01:56:40.809Z,5.86
2023-03-22T02:01:47.070Z,5.82
2023-03-22T02:06:54.221Z,5.80
2023-03-22T02:12:25.476Z,5.74
2023-03-22T02:17:45.344Z,5.64
2023-03-22T02:22:59.023Z,5.59
2023-03-22T02:28:14.522Z,5.48
2023-03-22T02:33:29.688Z,5.36
2023-03-22T02:39:06.695Z,5.28
2023-03-22T02:44:35.358Z,5.25
2023-03-22T02:49:48.055Z,5.21
2023-03-22T02:55:10.026Z,5.15
2023-03-22T03:00:14.656Z,5.07
2023-03-22T03:05:18.227Z,5.01
2023-03-22T03:10:22.044Z,4.92
2023-03-22T03:15:23.960Z,4.84
2023-03-22T03:20:52.964Z,4.80
2023-03-22T03:26:19.419Z,4.83
2023-03-22T03:31:33.435Z,4.90
2023-03-22T03:36:39.543Z,4.96
2023-03-22T03:41:43.950Z,5.02
2023-03-22T03:46:46.701Z,5.06
2023-03-22T03:51:52.128Z,5.06
2023-03-22T03:56:54.503Z,5.05
2023-03-22T04:01:56.273Z,5.08
2023-03-22T04:07:01.897Z,5.14
2023-03-22T04:12:05.000Z,5.20
2023-03-22T04:17:08.728Z,5.28
2023-03-22T04:22:14.873Z,5.35
2023-03-22T04:27:18.282Z,5.40
2023-03-22T04:32:34.512Z,5.48
2023-03-22T04:37:36.569Z,5.57
2023-03-22T04:42:46.794Z,5.67
2023-03-22T04:47:59.455Z,5.75
2023-03-22T04:53:01.899Z,5.83
2023-03-22T04:58:05.542Z,5.91
2023-03-22T05:03:07.406Z,5.99
2023-03-22T05:08:15.917Z,6.06
2023-03-22T05:17:03.819Z,6.24
2023-03-22T05:22:08.435Z,6.32
2023-03-22T05:27:17.956Z,6.39
2023-03-22T05:32:25.551Z,6.45
2023-03-22T05:37:30.039Z,6.47
2023-03-22T05:42:32.736Z,6.53
2023-03-22T05:47:36.172Z,6.63
2023-03-22T05:52:44.668Z,6.75
2023-03-22T05:58:02.772Z,6.86
2023-03-22T06:03:05.779Z,6.94
2023-03-22T06:08:12.672Z,7.02
2023-03-22T06:13:14.728Z,7.08
2023-03-22T06:18:16.897Z,7.13
2023-03-22T06:23:21.804Z,7.18
2023-03-22T06:28:23.757Z,7.24
2023-03-22T06:33:28.472Z,7.29
2023-03-22T06:38:35.120Z,7.35
2023-03-22T06:43:37.792Z,7.38
2023-03-22T06:48:50.970Z,7.48
2023-03-22T06:53:53.073Z,7.69
2023-03-22T06:58:57.907Z,8.00
2023-03-22T07:03:59.873Z,8.50
2023-03-22T07:09:02.582Z,9.35
2023-03-22T07:14:06.649Z,10.92
2023-03-22T07:19:28.723Z,11.47
2023-03-22T07:24:31.426Z,11.58
2023-03-22T07:29:33.684Z,11.69
2023-03-22T07:34:36.127Z,11.85
2023-03-22T07:39:47.200Z,12.13
2023-03-22T07:44:49.776Z,12.40
2023-03-22T07:49:54.457Z,12.71
2023-03-22T07:55:01.319Z,12.91
2023-03-22T08:00:04.783Z,13.00
2023-03-22T08:05:20.229Z,13.10
2023-03-22T08:10:26.847Z,13.12
2023-03-22T08:15:29.468Z,13.02
2023-03-22T08:20:31.845Z,13.00
2023-03-22T08:25:37.105Z,13.09
2023-03-22T08:30:43.804Z,13.29
2023-03-22T08:35:46.481Z,13.44
2023-03-22T08:40:48.395Z,13.60
2023-03-22T08:45:53.726Z,13.89
2023-03-22T08:50:56.055Z,14.17
2023-03-22T08:56:04.928Z,14.43
2023-03-22T09:01:25.704Z,14.78
2023-03-22T09:06:38.757Z,15.30
2023-03-22T09:11:42.660Z,15.73
2023-03-22T09:16:45.580Z,16.01
2023-03-22T09:21:47.660Z,16.41
2023-03-22T09:26:53.908Z,16.84
2023-03-22T09:31:55.903Z,17.26
2023-03-22T09:37:02.786Z,17.49
2023-03-22T09:42:31.461Z,17.49
2023-03-22T09:47:45.429Z,17.51
2023-03-22T09:52:48.188Z,17.35
2023-03-22T09:58:12.185Z,17.20
2023-03-22T10:03:31.142Z,17.25
2023-03-22T10:08:49.946Z,17.21
2023-03-22T10:14:01.883Z,17.09
2023-03-22T10:19:33.166Z,17.09
2023-03-22T10:24:38.570Z,17.08
2023-03-22T10:29:47.670Z,16.98
2023-03-22T10:34:49.482Z,16.90
2023-03-22T10:39:55.849Z,16.87
2023-03-22T10:45:03.720Z,16.95
2023-03-22T10:50:12.135Z,16.97
2023-03-22T10:55:15.927Z,16.95
2023-03-22T11:00:18.012Z,16.82
2023-03-22T11:05:27.529Z,16.75
2023-03-22T11:10:34.821Z,16.77
2023-03-22T11:15:41.383Z,16.73
2023-03-22T11:20:54.113Z,16.65
2023-03-22T11:26:00.205Z,16.59
2023-03-22T11:31:09.522Z,16.63
2023-03-22T11:36:17.891Z,16.70
2023-03-22T11:41:25.969Z,16.76
2023-03-22T11:46:29.612Z,16.80
2023-03-22T11:51:37.683Z,16.83
2023-03-22T11:56:48.293Z,16.90
2023-03-22T12:01:58.366Z,16.92
2023-03-22T12:07:03.714Z,16.96
2023-03-22T12:12:09.896Z,17.05
2023-03-22T12:17:21.847Z,17.17
2023-03-22T12:22:30.559Z,17.24
2023-03-22T12:27:42.533Z,17.30
2023-03-22T12:33:06.792Z,17.33
2023-03-22T12:38:43.119Z,17.39
2023-03-22T12:44:01.176Z,17.54
2023-03-22T12:49:12.469Z,17.59
2023-03-22T12:54:17.040Z,17.58
2023-03-22T12:59:23.397Z,17.53
2023-03-22T13:04:37.330Z,17.51
2023-03-22T13:09:50.945Z,17.54
2023-03-22T13:14:52.673Z,17.50
2023-03-22T13:20:23.488Z,17.44
2023-03-22T13:25:26.222Z,17.44
2023-03-22T13:30:47.031Z,17.47
2023-03-22T13:35:56.700Z,17.51
2023-03-22T13:41:03.401Z,17.48
2023-03-22T13:46:05.031Z,17.45
2023-03-22T13:51:22.769Z,17.47
2023-03-22T13:56:54.124Z,17.45
2023-03-22T14:02:18.568Z,17.37
2023-03-22T14:07:39.170Z,17.27
2023-03-22T14:13:03.950Z,17.21
2023-03-22T14:18:21.351Z,17.20
